createdAt,value
2022-08-05T00:00:00.000Z,5.52
2022-08-05T00:15:00.000Z,5.56
2022-08-05T00:30:00.000Z,5.85
2022-08-05T00:45:00.000Z,5.56
2022-08-05T01:00:00.000Z,5.53
2022-08-05T01:15:00.000Z,5.46
2022-08-05T01:30:00.000Z,5.59
2022-08-05T01:45:00.000Z,5.69
2022-08-05T02:00:00.000Z,5.67
2022-08-05T02:15:00.000Z,5.53
2022-08-05T02:30:00.000Z,5.79
2022-08-05T02:45:00.000Z,5.61
2022-08-05T03:00:00.000Z,5.44
2022-08-05T03:15:00.000Z,5.29
2022-08-05T03:30:00.000Z,5.29
2022-08-05T03:45:00.000Z,5.75
2022-08-05T04:00:00.000Z,6.12
2022-08-05T04:15:00.000Z,6.22
2022-08-05T04:30:00.000Z,6.28
2022-08-05T04:45:00.000Z,5.41
2022-08-05T05:00:00.000Z,5.28
2022-08-05T05:15:00.000Z,5.89
2022-08-05T05:30:00.000Z,5.66
2022-08-05T05:45:00.000Z,5.66
2022-08-05T06:00:00.000Z,5.45
2022-08-05T06:15:00.000Z,5.56
2022-08-05T06:30:00.000Z,6.33
2022-08-05T06:45:00.000Z,5.59
2022-08-05T07:00:00.000Z,5.46
2022-08-05T07:15:00.000Z,5.33
2022-08-05T07:30:00.000Z,5.62
2022-08-05T07:45:00.000Z,5.16
2022-08-05T08:00:00.000Z,5.3
2022-08-05T08:15:00.000Z,5.37
2022-08-05T08:30:00.000Z,5.53
2022-08-05T08:45:00.000Z,5.09
2022-08-05T09:00:00.000Z,5.07
2022-08-05T09:15:00.000Z,3.85
2022-08-05T09:30:00.000Z,3.41
2022-08-05T09:45:00.000Z,3.18
2022-08-05T10:00:00.000Z,3.56
2022-08-05T10:15:00.000Z,3.51
2022-08-05T10:30:00.000Z,3.95
2022-08-05T10:45:00.000Z,3.72
2022-08-05T11:00:00.000Z,4.21
2022-08-05T11:15:00.000Z,3.49
2022-08-05T11:30:00.000Z,4.05
2022-08-05T11:45:00.000Z,4.93
2022-08-05T12:00:00.000Z,4.85
2022-08-05T12:15:00.000Z,5.02
2022-08-05T12:30:00.000Z,5.42
2022-08-05T12:45:00.000Z,5.22
2022-08-05T13:00:00.000Z,5.71
2022-08-05T13:15:00.000Z,5.56
2022-08-05T13:30:00.000Z,5.68
2022-08-05T13:45:00.000Z,5.42
2022-08-05T14:00:00.000Z,5.06
2022-08-05T14:15:00.000Z,5.04
2022-08-05T14:30:00.000Z,5.15
2022-08-05T14:45:00.000Z,5.18
2022-08-05T15:00:00.000Z,5.24
2022-08-05T15:15:00.000Z,5.74
2022-08-05T15:30:00.000Z,5.4
2022-08-05T15:45:00.000Z,5.94
2022-08-05T16:00:00.000Z,6.79
2022-08-05T16:15:00.000Z,6.08
2022-08-05T16:30:00.000Z,6.36
2022-08-05T16:45:00.000Z,6.18
2022-08-05T17:00:00.000Z,6.18
2022-08-05T17:15:00.000Z,6.23
2022-08-05T17:30:00.000Z,5.93
2022-08-05T17:45:00.000Z,5.96
2022-08-05T18:00:00.000Z,6.28
2022-08-05T18:15:00.000Z,5.68
2022-08-05T18:30:00.000Z,5.34
2022-08-05T18:45:00.000Z,5.09
2022-08-05T19:00:00.000Z,5.06
2022-08-05T19:15:00.000Z,4.89
2022-08-05T19:30:00.000Z,3.65
2022-08-05T19:45:00.000Z,3.52
2022-08-05T20:00:00.000Z,3.59
2022-08-05T20:15:00.000Z,3.45
2022-08-05T20:30:00.000Z,3.29
2022-08-05T20:45:00.000Z,3.26
2022-08-05T21:00:00.000Z,3.31
2022-08-05T21:15:00.000Z,3.16
2022-08-05T21:30:00.000Z,3.19
2022-08-05T21:45:00.000Z,3.18
2022-08-05T22:00:00.000Z,3.15
2022-08-05T22:15:00.000Z,3.21
2022-08-05T22:30:00.000Z,4.35
2022-08-05T22:45:00.000Z,3.78
2022-08-05T23:00:00.000Z,3.96
2022-08-05T23:15:00.000Z,4.68
2022-08-05T23:30:00.000Z,4.52
2022-08-05T23:45:00.000Z,4.78
